Time;durP1;ratioP1;P1;durP2;ratioP2;P2;SDS_P1;SDS_P2;PMS_P1;PMS_P2;Temp;Humidity;BMP_temperature;BMP_pressure;BME280_temperature;BME280_humidity;BME280_pressure;Samples;Min_cycle;Max_cycle;Signal;HPM_P1;HPM_P2
2023/04/07 00:00:42;;;;;;;31.17;17.60;;;0.10;99.90;;;;;;4938882;29;20441;-76
2023/04/07 00:03:08;;;;;;;33.20;20.33;;;0.10;99.90;;;;;;4967672;28;20469;-75
2023/04/07 00:05:33;;;;;;;29.83;18.67;;;0.00;99.90;;;;;;4994608;28;20112;-75
2023/04/07 00:07:59;;;;;;;29.23;17.77;;;0.10;99.90;;;;;;4994650;28;20030;-75
2023/04/07 00:10:25;;;;;;;26.75;16.05;;;0.10;99.90;;;;;;4994581;28;20050;-75
2023/04/07 00:12:51;;;;;;;33.38;18.98;;;0.00;99.90;;;;;;4977131;28;20038;-75
2023/04/07 00:15:16;;;;;;;31.08;17.70;;;0.10;99.90;;;;;;4994572;28;20469;-75
2023/04/07 00:17:42;;;;;;;30.52;16.45;;;0.00;99.90;;;;;;4994422;28;20036;-76
2023/04/07 00:20:08;;;;;;;32.33;18.40;;;0.00;99.90;;;;;;4994284;28;20019;-75
2023/04/07 00:22:34;;;;;;;32.65;18.35;;;0.00;99.90;;;;;;4976909;28;20399;-75
2023/04/07 00:24:59;;;;;;;26.73;18.33;;;0.10;99.90;;;;;;4994359;28;20022;-75
2023/04/07 00:27:25;;;;;;;28.95;17.60;;;0.10;99.90;;;;;;4994333;28;20030;-75
2023/04/07 00:29:53;;;;;;;33.22;17.00;;;0.10;99.90;;;;;;4976864;28;20030;-75
2023/04/07 00:32:19;;;;;;;31.00;18.35;;;0.10;99.90;;;;;;4994202;28;20034;-76
2023/04/07 00:34:45;;;;;;;37.33;19.92;;;0.10;99.90;;;;;;4976743;28;20033;-75
2023/04/07 00:37:10;;;;;;;30.10;19.52;;;0.10;99.90;;;;;;4976841;28;20026;-76
2023/04/07 00:39:36;;;;;;;32.97;19.63;;;0.10;99.90;;;;;;4976642;28;20026;-76
2023/04/07 00:42:04;;;;;;;33.15;17.50;;;0.10;99.90;;;;;;4994086;28;20026;-75
2023/04/07 00:44:30;;;;;;;32.75;17.73;;;0.10;99.90;;;;;;4976671;28;20022;-75
2023/04/07 00:46:55;;;;;;;31.23;18.67;;;0.10;99.90;;;;;;4976649;28;20100;-76
2023/04/07 00:49:21;;;;;;;32.60;18.55;;;0.10;99.90;;;;;;4993967;28;20105;-76
2023/04/07 00:51:47;;;;;;;32.65;17.52;;;0.10;99.90;;;;;;4994019;28;20042;-75
2023/04/07 00:54:12;;;;;;;30.48;17.95;;;0.00;99.90;;;;;;4994052;28;20034;-76
2023/04/07 00:56:38;;;;;;;32.25;18.23;;;0.10;99.90;;;;;;4976463;28;20029;-75
2023/04/07 00:59:04;;;;;;;34.67;18.10;;;0.00;99.90;;;;;;4993051;28;20026;-76
2023/04/07 01:01:49;;;;;;;35.40;18.95;;;0.00;99.90;;;;;;4976437;28;20060;-75
2023/04/07 01:04:32;;;;;;;35.90;18.58;;;-0.10;99.90;;;;;;4993893;28;20447;-75
2023/04/07 01:07:05;;;;;;;35.25;18.30;;;0.00;99.90;;;;;;4976596;28;20042;-75
2023/04/07 01:09:41;;;;;;;38.95;19.95;;;0.00;99.90;;;;;;4976372;28;20022;-75
2023/04/07 01:12:16;;;;;;;35.50;18.23;;;0.00;99.90;;;;;;4976331;28;20385;-75
2023/04/07 01:14:53;;;;;;;37.50;18.95;;;0.00;99.90;;;;;;4993804;28;20022;-75
2023/04/07 01:17:22;;;;;;;45.03;21.70;;;-0.10;99.90;;;;;;4976465;28;20077;-76
2023/04/07 01:19:56;;;;;;;39.47;19.13;;;-0.10;99.90;;;;;;4976416;28;20062;-75
2023/04/07 01:22:28;;;;;;;40.00;19.73;;;-0.10;99.90;;;;;;4993508;28;20047;-75
2023/04/07 01:25:21;;;;;;;31.63;18.38;;;-0.10;99.90;;;;;;4993880;28;20483;-75
2023/04/07 01:28:20;;;;;;;40.22;20.15;;;-0.10;99.90;;;;;;4993798;28;20034;-75
2023/04/07 01:30:47;;;;;;;40.65;20.13;;;-0.10;99.90;;;;;;4976084;28;20034;-76
2023/04/07 01:33:14;;;;;;;42.75;21.15;;;-0.10;99.90;;;;;;4993565;28;20037;-77
2023/04/07 01:35:41;;;;;;;38.83;18.48;;;-0.10;99.90;;;;;;4993488;28;20073;-76
2023/04/07 01:38:08;;;;;;;41.67;19.90;;;-0.10;99.90;;;;;;4993573;28;20029;-75
2023/04/07 01:40:35;;;;;;;38.83;20.00;;;0.00;99.90;;;;;;4993561;28;20103;-75
2023/04/07 01:43:02;;;;;;;35.47;19.75;;;0.00;99.90;;;;;;4976800;28;20082;-76
2023/04/07 01:45:29;;;;;;;39.72;20.92;;;-0.10;99.90;;;;;;4956701;28;20030;-75
2023/04/07 01:47:55;;;;;;;38.72;19.58;;;-0.10;99.90;;;;;;4974077;28;20114;-75
2023/04/07 01:50:21;;;;;;;36.03;20.13;;;-0.10;99.90;;;;;;4956799;28;20023;-75
2023/04/07 01:52:47;;;;;;;39.13;21.02;;;-0.10;99.90;;;;;;4956640;28;20033;-75
2023/04/07 01:55:13;;;;;;;43.50;21.02;;;-0.10;99.90;;;;;;4957028;28;20027;-75
2023/04/07 01:57:39;;;;;;;39.05;18.42;;;-0.10;99.90;;;;;;4973868;28;20105;-76
2023/04/07 02:00:05;;;;;;;42.50;19.65;;;-0.10;99.90;;;;;;4974069;28;20050;-75
2023/04/07 02:02:35;;;;;;;42.80;20.13;;;-0.10;99.90;;;;;;4974000;28;20477;-75
2023/04/07 02:05:08;;;;;;;37.78;20.33;;;-0.10;99.90;;;;;;4956521;28;20022;-76
2023/04/07 02:07:56;;;;;;;34.47;19.38;;;-0.10;99.90;;;;;;4956460;28;20082;-76
2023/04/07 02:10:24;;;;;;;33.10;18.13;;;0.00;99.90;;;;;;4976136;28;20081;-76
2023/04/07 02:12:51;;;;;;;36.97;18.33;;;0.00;99.90;;;;;;4959815;28;20042;-75
2023/04/07 02:15:18;;;;;;;40.65;19.95;;;-0.10;99.90;;;;;;4977368;28;20027;-76
2023/04/07 02:17:48;;;;;;;35.28;18.77;;;-0.10;99.90;;;;;;4977134;28;20054;-75
2023/04/07 02:20:15;;;;;;;41.45;20.45;;;-0.10;99.90;;;;;;4977074;28;20026;-75
2023/04/07 02:22:43;;;;;;;35.75;19.73;;;0.00;99.90;;;;;;4977187;28;20439;-75
2023/04/07 02:25:27;;;;;;;35.88;18.27;;;0.00;99.90;;;;;;4977214;28;20139;-76
2023/04/07 02:27:54;;;;;;;35.88;18.73;;;0.00;99.90;;;;;;4977098;28;20166;-76
2023/04/07 02:30:20;;;;;;;39.95;19.05;;;0.00;99.90;;;;;;4959796;28;20062;-75
2023/04/07 02:32:45;;;;;;;35.45;18.48;;;0.00;99.90;;;;;;4978707;28;20492;-76
2023/04/07 02:35:11;;;;;;;45.00;20.02;;;-0.10;99.90;;;;;;4978987;28;20484;-75
2023/04/07 02:37:38;;;;;;;32.00;17.52;;;-0.10;99.90;;;;;;4978779;28;20030;-75
2023/04/07 02:40:04;;;;;;;40.30;21.40;;;-0.10;99.90;;;;;;4978889;28;20558;-76
2023/04/07 02:42:30;;;;;;;32.70;19.75;;;0.00;99.90;;;;;;4996367;28;20392;-75
2023/04/07 02:44:56;;;;;;;39.53;19.35;;;-0.10;99.90;;;;;;4996194;28;20025;-75
2023/04/07 02:47:22;;;;;;;36.72;18.27;;;-0.10;99.90;;;;;;4996237;28;20022;-76
2023/04/07 02:49:48;;;;;;;36.38;19.27;;;-0.10;99.90;;;;;;4996137;28;20029;-75
2023/04/07 02:52:13;;;;;;;40.72;21.08;;;0.00;99.90;;;;;;4978534;28;20471;-76
2023/04/07 02:54:39;;;;;;;42.72;20.15;;;0.00;99.90;;;;;;4978568;28;20054;-76
2023/04/07 02:57:04;;;;;;;37.38;19.55;;;0.00;99.90;;;;;;4978560;28;20042;-76
2023/04/07 02:59:30;;;;;;;39.65;19.95;;;0.00;99.90;;;;;;4995917;28;20113;-75
2023/04/07 03:01:56;;;;;;;38.65;19.08;;;0.00;99.90;;;;;;4995954;28;20026;-76
2023/04/07 03:04:22;;;;;;;40.97;20.98;;;0.00;99.90;;;;;;4995875;28;20030;-76
2023/04/07 03:06:47;;;;;;;38.47;18.67;;;0.00;99.90;;;;;;4995839;28;20034;-76
2023/04/07 03:09:13;;;;;;;41.08;19.38;;;0.10;99.90;;;;;;4995779;28;20459;-75
2023/04/07 03:11:40;;;;;;;37.92;20.02;;;0.10;99.90;;;;;;4979223;28;20043;-76
2023/04/07 03:14:06;;;;;;;44.88;21.50;;;0.00;99.90;;;;;;4976217;28;20022;-75
2023/04/07 03:16:31;;;;;;;40.22;18.73;;;0.00;99.90;;;;;;4976289;28;20027;-75
2023/04/07 03:18:57;;;;;;;48.78;21.25;;;0.00;99.90;;;;;;4958795;28;20045;-77
2023/04/07 03:21:22;;;;;;;41.90;20.70;;;0.00;99.90;;;;;;4975253;28;20043;-75
2023/04/07 03:23:48;;;;;;;35.08;18.85;;;0.00;99.90;;;;;;4975999;28;20034;-76
2023/04/07 03:26:14;;;;;;;43.30;19.63;;;0.00;99.90;;;;;;4976037;28;20389;-76
2023/04/07 03:28:39;;;;;;;58.15;27.33;;;0.00;99.90;;;;;;4958573;28;20019;-75
2023/04/07 03:31:05;;;;;;;58.17;25.77;;;0.00;99.90;;;;;;4975908;28;20032;-76
2023/04/07 03:33:31;;;;;;;72.45;31.40;;;0.00;99.90;;;;;;4958533;28;20034;-75
2023/04/07 03:35:56;;;;;;;45.92;22.88;;;0.00;99.90;;;;;;4975829;28;20405;-75
2023/04/07 03:38:22;;;;;;;61.28;26.42;;;0.00;99.90;;;;;;4975842;28;20436;-76
2023/04/07 03:40:47;;;;;;;40.53;20.10;;;0.00;99.90;;;;;;4975752;28;20031;-76
2023/04/07 03:43:14;;;;;;;43.42;19.40;;;0.00;99.90;;;;;;4975683;28;20417;-76
2023/04/07 03:45:41;;;;;;;112.78;34.53;;;0.00;99.90;;;;;;4958173;28;20073;-76
2023/04/07 03:48:10;;;;;;;162.88;61.03;;;0.00;99.90;;;;;;4976520;28;20041;-76
2023/04/07 03:50:36;;;;;;;54.65;24.92;;;0.00;99.90;;;;;;4975534;28;20894;-75
2023/04/07 03:53:02;;;;;;;46.38;19.48;;;0.00;99.90;;;;;;4957976;28;20034;-76
2023/04/07 03:55:28;;;;;;;44.03;19.45;;;0.00;99.90;;;;;;4975403;28;20022;-76
2023/04/07 03:57:54;;;;;;;46.05;20.65;;;0.00;99.90;;;;;;4975418;28;20031;-75
2023/04/07 04:00:20;;;;;;;44.15;21.58;;;-0.10;99.90;;;;;;4958119;28;20037;-76
2023/04/07 04:02:45;;;;;;;44.72;21.42;;;-0.10;99.90;;;;;;4975269;28;20073;-75
2023/04/07 04:05:11;;;;;;;41.67;18.80;;;-0.10;99.90;;;;;;4957958;28;20401;-76
2023/04/07 04:07:37;;;;;;;50.85;21.05;;;-0.10;99.90;;;;;;4975197;28;20484;-75
2023/04/07 04:10:02;;;;;;;42.38;20.08;;;-0.20;99.90;;;;;;4976646;28;20027;-75
2023/04/07 04:12:28;;;;;;;41.45;20.90;;;-0.10;99.90;;;;;;4994466;28;20030;-75
2023/04/07 04:14:53;;;;;;;58.08;24.25;;;-0.20;99.90;;;;;;4994560;28;20050;-75
2023/04/07 04:17:19;;;;;;;41.70;18.85;;;-0.20;99.90;;;;;;4994564;28;20034;-75
2023/04/07 04:19:44;;;;;;;55.45;22.00;;;-0.20;99.90;;;;;;4977148;28;20045;-76
2023/04/07 04:22:10;;;;;;;95.75;40.40;;;-0.10;99.90;;;;;;4994576;28;20088;-75
2023/04/07 04:24:36;;;;;;;37.65;18.65;;;-0.10;99.90;;;;;;4973350;28;20771;-77
2023/04/07 04:27:01;;;;;;;45.15;19.90;;;-0.10;99.90;;;;;;4982802;28;20039;-76
2023/04/07 04:29:27;;;;;;;34.42;16.88;;;-0.10;99.90;;;;;;4994365;28;20029;-75
2023/04/07 04:31:53;;;;;;;31.63;16.65;;;-0.10;99.90;;;;;;4994123;28;20060;-75
2023/04/07 04:34:18;;;;;;;34.30;18.02;;;-0.10;99.90;;;;;;4994281;28;20030;-76
2023/04/07 04:36:44;;;;;;;35.42;16.98;;;-0.10;99.90;;;;;;4965477;28;20030;-75
2023/04/07 04:39:09;;;;;;;30.85;15.48;;;-0.10;99.90;;;;;;4957390;28;20019;-76
2023/04/07 04:41:35;;;;;;;39.88;19.60;;;-0.10;99.90;;;;;;4974741;28;20022;-75
2023/04/07 04:44:01;;;;;;;38.85;19.38;;;0.00;99.90;;;;;;4957427;28;20027;-75
2023/04/07 04:46:26;;;;;;;37.88;18.13;;;0.00;99.90;;;;;;4974582;28;20481;-76
2023/04/07 04:48:53;;;;;;;36.05;18.38;;;0.00;99.90;;;;;;4956914;28;20066;-76
2023/04/07 04:51:18;;;;;;;39.38;17.25;;;0.00;99.90;;;;;;4961918;28;20030;-76
2023/04/07 04:53:44;;;;;;;34.30;16.92;;;0.00;99.90;;;;;;4982724;28;20029;-76
2023/04/07 04:56:10;;;;;;;36.58;18.35;;;0.00;99.90;;;;;;4983506;28;20106;-74
2023/04/07 04:58:39;;;;;;;36.95;18.27;;;0.00;99.90;;;;;;4964163;28;20377;-75
2023/04/07 05:01:04;;;;;;;37.90;17.77;;;0.00;99.90;;;;;;4982837;28;20062;-75
2023/04/07 05:03:30;;;;;;;39.03;17.90;;;0.10;99.90;;;;;;4987912;28;20076;-76
2023/04/07 05:05:56;;;;;;;40.30;19.63;;;0.00;99.90;;;;;;4982358;28;20095;-76
2023/04/07 05:08:21;;;;;;;41.28;18.35;;;0.00;99.90;;;;;;4981811;28;20113;-76
2023/04/07 05:10:47;;;;;;;40.00;16.90;;;0.00;99.90;;;;;;4969981;28;20053;-76
2023/04/07 05:13:13;;;;;;;37.50;16.65;;;0.00;99.90;;;;;;4991068;28;20076;-75
2023/04/07 05:15:40;;;;;;;39.83;15.60;;;0.00;99.90;;;;;;4983028;28;20440;-76
2023/04/07 05:18:06;;;;;;;41.47;20.45;;;0.00;99.90;;;;;;4979306;28;20030;-76
2023/04/07 05:20:32;;;;;;;43.22;18.73;;;0.00;99.90;;;;;;4980904;28;20125;-76
2023/04/07 05:22:57;;;;;;;36.88;18.08;;;0.10;99.90;;;;;;4980373;28;20026;-76
2023/04/07 05:25:23;;;;;;;31.27;17.40;;;0.00;99.90;;;;;;4963814;28;20066;-76
2023/04/07 05:27:49;;;;;;;36.38;18.02;;;0.10;99.90;;;;;;4979520;28;20019;-76
2023/04/07 05:30:15;;;;;;;40.83;19.55;;;0.10;99.90;;;;;;4965415;28;20037;-75
2023/04/07 05:32:40;;;;;;;38.47;18.85;;;0.10;99.90;;;;;;4962828;28;20039;-75
2023/04/07 05:35:06;;;;;;;41.05;17.80;;;0.10;99.90;;;;;;4981687;28;20068;-75
2023/04/07 05:37:32;;;;;;;38.25;18.90;;;0.10;99.90;;;;;;4980946;28;20049;-75
2023/04/07 05:39:57;;;;;;;38.85;17.45;;;0.10;99.90;;;;;;4955292;28;20018;-75
2023/04/07 05:42:23;;;;;;;46.70;20.15;;;0.10;99.90;;;;;;4956423;28;20038;-75
2023/04/07 05:44:49;;;;;;;47.38;19.23;;;0.10;99.90;;;;;;4981040;28;20027;-75
2023/04/07 05:47:15;;;;;;;53.13;22.02;;;0.20;99.90;;;;;;4962652;28;20042;-75
2023/04/07 05:49:44;;;;;;;50.25;22.80;;;0.20;99.90;;;;;;4983511;28;20045;-75
2023/04/07 05:52:11;;;;;;;48.65;20.83;;;0.20;99.90;;;;;;4983408;28;20528;-75
2023/04/07 05:54:39;;;;;;;40.50;19.30;;;0.30;99.90;;;;;;4965634;28;20038;-75
2023/04/07 05:57:04;;;;;;;36.83;18.05;;;0.30;99.90;;;;;;4983555;28;20035;-75
2023/04/07 05:59:30;;;;;;;40.03;17.95;;;0.30;99.90;;;;;;4960820;28;20035;-75
2023/04/07 06:01:55;;;;;;;33.75;16.67;;;0.20;99.90;;;;;;4981005;28;20807;-74
2023/04/07 06:04:21;;;;;;;35.40;16.35;;;0.20;99.90;;;;;;4985964;28;20774;-75
2023/04/07 06:06:46;;;;;;;42.72;20.75;;;0.30;99.90;;;;;;4981916;28;20456;-74
2023/04/07 06:09:12;;;;;;;35.17;17.52;;;0.30;99.90;;;;;;4984731;28;20034;-74
2023/04/07 06:11:38;;;;;;;35.13;17.70;;;0.40;99.90;;;;;;4989163;28;20129;-75
2023/04/07 06:14:04;;;;;;;34.25;15.77;;;0.50;99.90;;;;;;4977342;28;20495;-75
2023/04/07 06:16:29;;;;;;;46.75;20.27;;;0.50;99.90;;;;;;4995387;28;20460;-75
2023/04/07 06:18:55;;;;;;;40.25;20.83;;;0.50;99.90;;;;;;4995440;28;20026;-75
2023/04/07 06:21:21;;;;;;;30.98;16.23;;;0.60;99.90;;;;;;4995318;28;20042;-74
2023/04/07 06:23:47;;;;;;;38.80;15.05;;;0.60;99.90;;;;;;4995718;28;20027;-76
2023/04/07 06:26:12;;;;;;;28.13;15.63;;;0.60;99.90;;;;;;4995622;28;20034;-76
2023/04/07 06:28:38;;;;;;;32.47;15.10;;;0.60;99.90;;;;;;4978085;28;20499;-74
2023/04/07 06:31:05;;;;;;;30.58;14.73;;;0.60;99.90;;;;;;4978151;28;20111;-74
2023/04/07 06:33:30;;;;;;;32.00;15.80;;;0.60;99.90;;;;;;4995266;28;20027;-74
2023/04/07 06:35:56;;;;;;;35.45;18.92;;;0.70;99.90;;;;;;4968349;28;20078;-76
2023/04/07 06:38:22;;;;;;;47.13;21.67;;;0.80;99.90;;;;;;4956648;28;20501;-76
2023/04/07 06:40:47;;;;;;;32.38;16.55;;;0.80;99.90;;;;;;4971673;28;20027;-75
2023/04/07 06:43:13;;;;;;;26.17;14.52;;;0.90;99.90;;;;;;4956712;28;20039;-75
2023/04/07 06:45:39;;;;;;;36.03;17.88;;;0.90;99.90;;;;;;4978894;28;20027;-76
2023/04/07 06:48:04;;;;;;;31.50;15.52;;;0.80;99.90;;;;;;4977825;28;20042;-76
2023/04/07 06:50:30;;;;;;;32.38;16.50;;;0.80;99.90;;;;;;4994298;28;20105;-76
2023/04/07 06:52:56;;;;;;;29.75;16.17;;;0.80;99.90;;;;;;4995037;28;20061;-76
2023/04/07 06:55:21;;;;;;;27.15;13.65;;;0.80;99.90;;;;;;4977548;28;20038;-76
2023/04/07 06:57:47;;;;;;;27.52;13.90;;;0.80;99.90;;;;;;4977440;28;20034;-74
2023/04/07 07:00:13;;;;;;;28.85;15.15;;;0.80;99.90;;;;;;4977853;28;20109;-74
2023/04/07 07:02:39;;;;;;;28.85;15.90;;;0.80;99.90;;;;;;4994636;28;20035;-74
2023/04/07 07:05:05;;;;;;;22.65;11.73;;;1.00;99.90;;;;;;4992091;28;20057;-75
2023/04/07 07:07:31;;;;;;;25.13;13.80;;;1.00;99.90;;;;;;4957462;28;20043;-76
2023/04/07 07:09:56;;;;;;;28.33;15.30;;;1.10;99.90;;;;;;4975670;28;20030;-74
2023/04/07 07:12:22;;;;;;;23.02;13.25;;;1.10;99.90;;;;;;4973768;28;20049;-76
2023/04/07 07:14:48;;;;;;;31.88;16.35;;;1.00;99.90;;;;;;4975452;28;20046;-76
2023/04/07 07:17:13;;;;;;;36.55;15.38;;;1.00;99.90;;;;;;4975399;28;20575;-76
2023/04/07 07:19:39;;;;;;;26.38;14.38;;;0.90;99.90;;;;;;4974649;28;20045;-75
2023/04/07 07:22:04;;;;;;;23.63;12.75;;;1.10;99.90;;;;;;4975363;28;20102;-74
2023/04/07 07:24:32;;;;;;;21.80;11.82;;;1.00;99.90;;;;;;4957836;28;20385;-75
2023/04/07 07:27:02;;;;;;;22.98;12.63;;;1.00;99.90;;;;;;4975910;28;20041;-76
2023/04/07 07:29:28;;;;;;;28.27;13.50;;;1.10;99.90;;;;;;4962971;28;20058;-76
2023/04/07 07:31:54;;;;;;;24.08;13.50;;;1.00;99.90;;;;;;4982038;28;20038;-76
2023/04/07 07:34:19;;;;;;;31.23;13.82;;;1.10;99.90;;;;;;4973412;28;20033;-76
2023/04/07 07:36:45;;;;;;;29.05;13.80;;;1.10;99.90;;;;;;4969361;28;20552;-74
2023/04/07 07:39:11;;;;;;;27.92;13.70;;;1.20;99.90;;;;;;4967838;28;20034;-76
2023/04/07 07:41:36;;;;;;;25.73;13.60;;;1.20;99.90;;;;;;4973940;28;20050;-76
2023/04/07 07:44:02;;;;;;;23.27;11.70;;;1.20;99.90;;;;;;4973491;28;20043;-76
2023/04/07 07:46:27;;;;;;;24.80;12.60;;;1.20;99.90;;;;;;4971537;28;20081;-75
2023/04/07 07:48:53;;;;;;;23.35;12.38;;;1.00;99.90;;;;;;4971019;28;20121;-75
2023/04/07 07:51:19;;;;;;;29.15;14.23;;;1.10;99.90;;;;;;4975118;28;20072;-76
2023/04/07 07:53:45;;;;;;;36.00;16.20;;;1.10;99.90;;;;;;4980114;28;20049;-76
2023/04/07 07:56:10;;;;;;;31.80;14.63;;;1.10;99.90;;;;;;4987007;28;20425;-75
2023/04/07 07:58:36;;;;;;;35.35;17.00;;;1.00;99.90;;;;;;4982472;28;20018;-76
2023/04/07 08:01:02;;;;;;;41.03;16.88;;;1.00;99.90;;;;;;4983924;28;20030;-76
2023/04/07 08:03:28;;;;;;;24.98;14.65;;;1.10;99.90;;;;;;4982365;28;20027;-75
2023/04/07 08:05:54;;;;;;;35.50;15.88;;;1.10;99.90;;;;;;4962278;28;20455;-75
2023/04/07 08:08:20;;;;;;;34.03;16.30;;;1.10;99.90;;;;;;4955739;28;20034;-76
2023/04/07 08:10:45;;;;;;;36.47;16.38;;;1.10;99.90;;;;;;4974292;28;20047;-75
2023/04/07 08:13:11;;;;;;;39.55;17.20;;;1.20;99.90;;;;;;4981822;28;20049;-76
2023/04/07 08:15:38;;;;;;;34.75;17.27;;;1.20;99.90;;;;;;4980831;28;20484;-75
2023/04/07 08:18:05;;;;;;;36.40;16.35;;;1.20;99.90;;;;;;4964839;28;20057;-75
2023/04/07 08:20:31;;;;;;;30.70;16.55;;;1.20;99.90;;;;;;4958179;28;20094;-75
2023/04/07 08:22:57;;;;;;;38.92;14.95;;;1.10;99.90;;;;;;4983012;28;20046;-75
2023/04/07 08:25:23;;;;;;;31.48;16.27;;;1.10;99.90;;;;;;4984022;28;20063;-75
2023/04/07 08:27:49;;;;;;;38.50;18.60;;;1.10;99.90;;;;;;4956738;28;20012;-75
2023/04/07 08:30:15;;;;;;;77.03;29.42;;;1.10;99.90;;;;;;4973833;28;20077;-76
2023/04/07 08:32:43;;;;;;;43.13;19.90;;;1.00;99.90;;;;;;4955166;28;20547;-76
2023/04/07 08:35:09;;;;;;;190.52;57.17;;;1.00;99.90;;;;;;4956304;28;20090;-76
2023/04/07 08:37:35;;;;;;;112.07;40.72;;;1.00;99.90;;;;;;4955364;28;20026;-76
2023/04/07 08:40:01;;;;;;;412.88;124.68;;;1.00;99.90;;;;;;4956304;28;20477;-76
2023/04/07 08:42:29;;;;;;;125.40;45.17;;;1.00;99.90;;;;;;4955969;28;20035;-76
2023/04/07 08:44:56;;;;;;;45.92;21.25;;;1.00;99.90;;;;;;4986528;28;20105;-76
2023/04/07 08:47:24;;;;;;;50.45;23.40;;;1.00;99.90;;;;;;4959663;28;20022;-76
2023/04/07 08:49:52;;;;;;;108.25;44.17;;;1.00;99.90;;;;;;4979916;28;20018;-76
2023/04/07 08:52:22;;;;;;;42.70;20.95;;;1.10;99.90;;;;;;4974803;28;20058;-76
2023/04/07 08:54:48;;;;;;;99.72;42.17;;;1.00;99.90;;;;;;4977895;28;20046;-76
2023/04/07 08:57:15;;;;;;;40.17;19.85;;;1.10;99.90;;;;;;4958391;28;20081;-76
2023/04/07 08:59:44;;;;;;;65.30;30.05;;;1.10;99.90;;;;;;4973187;28;20026;-76
2023/04/07 09:02:10;;;;;;;36.50;18.63;;;1.20;99.90;;;;;;4956124;28;20070;-76
2023/04/07 09:04:35;;;;;;;51.00;23.15;;;1.20;99.90;;;;;;4955601;28;20061;-76
2023/04/07 09:07:01;;;;;;;53.88;25.73;;;1.30;99.90;;;;;;4972431;28;20035;-76
2023/04/07 09:09:28;;;;;;;40.67;19.08;;;1.40;99.90;;;;;;4956508;28;20027;-76
2023/04/07 09:11:54;;;;;;;63.55;27.30;;;1.40;99.90;;;;;;4956670;28;20081;-76
2023/04/07 09:14:20;;;;;;;39.97;20.55;;;1.40;99.90;;;;;;4973747;28;20058;-76
2023/04/07 09:16:46;;;;;;;53.70;25.23;;;1.40;99.90;;;;;;4956620;28;20394;-76
2023/04/07 09:19:12;;;;;;;41.75;17.42;;;1.40;99.90;;;;;;4974785;28;20033;-76
2023/04/07 09:21:51;;;;;;;34.80;15.48;;;1.30;99.90;;;;;;4976423;28;20072;-74
2023/04/07 09:24:25;;;;;;;34.35;18.30;;;1.30;99.90;;;;;;4958978;28;20023;-76
2023/04/07 09:27:07;;;;;;;48.20;22.15;;;1.30;99.90;;;;;;4966252;28;20053;-74
2023/04/07 09:29:32;;;;;;;43.05;21.08;;;1.30;99.90;;;;;;4975336;28;20034;-74
2023/04/07 09:31:58;;;;;;;40.20;18.23;;;1.30;99.90;;;;;;4958310;28;20073;-74
2023/04/07 09:34:32;;;;;;;38.55;18.77;;;1.40;99.90;;;;;;4975777;28;20026;-74
2023/04/07 09:36:58;;;;;;;42.40;21.08;;;1.40;99.90;;;;;;4958928;28;20050;-75
2023/04/07 09:39:24;;;;;;;34.88;17.35;;;1.40;99.90;;;;;;4976224;28;20540;-75
2023/04/07 09:41:51;;;;;;;35.47;17.05;;;1.50;99.90;;;;;;4976115;28;20055;-74
2023/04/07 09:44:18;;;;;;;30.15;16.35;;;1.40;99.90;;;;;;4976265;28;20094;-74
2023/04/07 09:46:58;;;;;;;34.10;18.17;;;1.40;99.90;;;;;;4975856;28;20102;-75
2023/04/07 09:49:24;;;;;;;75.47;35.45;;;1.40;99.90;;;;;;4958815;28;20073;-74
2023/04/07 09:51:57;;;;;;;54.33;25.42;;;1.50;99.90;;;;;;4976051;28;20041;-74
2023/04/07 09:54:36;;;;;;;;;;;1.50;99.90;;;;;;4976269;28;20097;-74
2023/04/07 09:57:03;;;;;;;43.58;21.33;;;1.60;99.90;;;;;;4984854;28;19910;-75
2023/04/07 09:59:30;;;;;;;34.22;16.02;;;1.60;99.90;;;;;;4959151;28;20389;-75
2023/04/07 10:01:56;;;;;;;35.65;18.33;;;1.50;99.90;;;;;;4967924;28;20023;-75
2023/04/07 10:04:23;;;;;;;32.17;16.67;;;1.60;99.90;;;;;;4964912;28;20023;-75
2023/04/07 10:06:49;;;;;;;32.97;15.77;;;1.60;99.90;;;;;;4967594;28;20033;-75
2023/04/07 10:09:16;;;;;;;27.77;16.80;;;1.60;99.90;;;;;;4984401;28;20038;-76
2023/04/07 10:11:43;;;;;;;23.48;14.40;;;1.70;99.90;;;;;;4957342;28;20046;-76
2023/04/07 10:14:10;;;;;;;30.33;15.75;;;1.70;99.90;;;;;;4981911;28;20409;-76
2023/04/07 10:16:41;;;;;;;29.35;14.65;;;1.70;99.90;;;;;;4975437;28;20027;-74
2023/04/07 10:19:07;;;;;;;25.10;14.63;;;1.80;99.90;;;;;;4966204;28;20039;-74
2023/04/07 10:21:41;;;;;;;34.00;17.77;;;1.90;99.90;;;;;;4924140;28;1118367;-74
2023/04/07 10:24:45;;;;;;;33.55;16.35;;;1.90;99.90;;;;;;4976928;28;20566;-74
2023/04/07 10:27:16;;;;;;;33.60;16.80;;;1.90;99.90;;;;;;4979399;28;20078;-76
2023/04/07 10:29:45;;;;;;;28.75;17.42;;;1.90;99.90;;;;;;4982839;28;20031;-74
2023/04/07 10:32:11;;;;;;;32.83;16.38;;;1.80;99.90;;;;;;4987137;28;20559;-74
2023/04/07 10:34:49;;;;;;;30.25;17.45;;;1.90;99.90;;;;;;4967172;28;20107;-74
2023/04/07 10:37:18;;;;;;;36.88;20.17;;;1.90;99.90;;;;;;4949803;28;20046;-74
2023/04/07 10:39:44;;;;;;;35.45;20.58;;;1.90;99.90;;;;;;4978942;28;20023;-75
2023/04/07 10:42:38;;;;;;;40.10;23.25;;;1.90;99.90;;;;;;4992090;28;20045;-74
2023/04/07 10:45:05;;;;;;;30.00;17.25;;;1.90;99.90;;;;;;4983767;28;20027;-74
2023/04/07 10:47:31;;;;;;;34.40;16.98;;;2.00;99.90;;;;;;4984987;28;20041;-74
2023/04/07 10:50:19;;;;;;;33.70;18.23;;;2.00;99.90;;;;;;4975265;28;20023;-74
2023/04/07 10:52:47;;;;;;;41.78;21.75;;;2.00;99.90;;;;;;4955995;28;20102;-74
2023/04/07 10:55:39;;;;;;;64.05;34.70;;;2.10;99.90;;;;;;4954904;29;20024;-74
2023/04/07 10:58:23;;;;;;;77.07;40.58;;;2.20;99.90;;;;;;4956900;28;20019;-74
2023/04/07 11:01:10;;;;;;;85.15;36.13;;;2.20;99.90;;;;;;4983661;28;20060;-74
2023/04/07 11:03:38;;;;;;;39.58;20.08;;;2.20;99.90;;;;;;4961433;28;20069;-74
2023/04/07 11:06:07;;;;;;;32.22;17.48;;;2.20;99.90;;;;;;4956785;28;20041;-74
2023/04/07 11:08:36;;;;;;;33.10;18.23;;;2.20;99.90;;;;;;4973690;28;20041;-74
2023/04/07 11:11:09;;;;;;;29.08;15.57;;;2.10;99.90;;;;;;4982654;28;20059;-75
2023/04/07 11:13:41;;;;;;;28.88;14.57;;;2.10;99.90;;;;;;4961154;28;20074;-75
2023/04/07 11:16:08;;;;;;;;;;;2.00;99.90;;;;;;4965589;28;20126;-75
2023/04/07 11:18:36;;;;;;;28.58;15.13;;;2.00;99.90;;;;;;4986284;28;19918;-75
2023/04/07 11:21:04;;;;;;;31.17;16.73;;;2.00;99.90;;;;;;4978271;28;20122;-74
2023/04/07 11:23:40;;;;;;;23.65;13.95;;;2.10;99.90;;;;;;4954745;28;20191;-75
2023/04/07 11:26:07;;;;;;;25.17;13.90;;;2.10;99.90;;;;;;4970358;28;20020;-74
2023/04/07 11:28:33;;;;;;;23.52;14.35;;;2.10;99.90;;;;;;4974098;28;20069;-74
2023/04/07 11:30:59;;;;;;;25.45;13.45;;;2.10;99.90;;;;;;4975886;28;20022;-74
2023/04/07 11:33:27;;;;;;;28.42;14.40;;;2.20;99.90;;;;;;4956637;28;20121;-75
2023/04/07 11:35:55;;;;;;;23.77;12.63;;;2.30;99.90;;;;;;4973973;28;20085;-75
2023/04/07 11:38:22;;;;;;;27.10;16.27;;;2.30;99.90;;;;;;4956258;28;20031;-74
2023/04/07 11:40:48;;;;;;;22.00;12.55;;;2.30;99.90;;;;;;4973856;28;20059;-74
2023/04/07 11:43:22;;;;;;;23.05;11.70;;;2.40;99.90;;;;;;4955753;28;20058;-75
2023/04/07 11:46:16;;;;;;;21.45;12.38;;;2.40;99.90;;;;;;4956520;28;20585;-74
2023/04/07 11:48:43;;;;;;;21.27;14.38;;;2.50;99.90;;;;;;4958092;28;20114;-75
2023/04/07 11:51:21;;;;;;;19.80;11.63;;;2.60;99.90;;;;;;4958291;28;20015;-74
2023/04/07 11:53:53;;;;;;;20.52;12.82;;;2.50;99.90;;;;;;4973954;28;20113;-74
2023/04/07 11:56:18;;;;;;;44.53;27.23;;;2.60;99.90;;;;;;4956344;28;20031;-75
2023/04/07 11:58:51;;;;;;;45.05;22.35;;;2.60;99.90;;;;;;4973522;28;20149;-74
2023/04/07 12:01:18;;;;;;;72.22;29.33;;;2.60;99.90;;;;;;4973614;28;20105;-75
2023/04/07 12:04:00;;;;;;;36.63;15.95;;;2.60;99.90;;;;;;4973436;28;20026;-75
2023/04/07 12:06:40;;;;;;;37.85;16.30;;;2.60;99.90;;;;;;4973897;28;20022;-74
2023/04/07 12:09:07;;;;;;;52.45;18.95;;;2.60;99.90;;;;;;4957961;28;20022;-75
2023/04/07 12:11:33;;;;;;;64.05;31.40;;;2.60;99.90;;;;;;4957988;28;20033;-74
2023/04/07 12:13:59;;;;;;;69.53;30.63;;;2.60;99.90;;;;;;4975224;28;20110;-75
2023/04/07 12:16:25;;;;;;;37.55;16.48;;;2.60;99.90;;;;;;4957868;28;20031;-75
2023/04/07 12:18:50;;;;;;;51.35;18.38;;;2.60;99.90;;;;;;4975345;28;20523;-75
2023/04/07 12:21:19;;;;;;;27.15;13.00;;;2.60;99.90;;;;;;4975049;28;20046;-75
2023/04/07 12:23:46;;;;;;;35.85;18.58;;;2.60;99.90;;;;;;4975101;28;20481;-75
2023/04/07 12:26:12;;;;;;;23.85;12.25;;;2.60;99.90;;;;;;4957759;28;20053;-74
2023/04/07 12:28:38;;;;;;;60.33;27.65;;;2.60;99.90;;;;;;4975061;28;20143;-74
2023/04/07 12:31:04;;;;;;;70.70;29.65;;;2.60;99.90;;;;;;4957603;28;20506;-75
2023/04/07 12:33:30;;;;;;;75.40;28.27;;;2.70;99.90;;;;;;4974811;28;20027;-74
2023/04/07 12:35:58;;;;;;;38.13;19.15;;;2.80;99.90;;;;;;4974893;28;20031;-75
2023/04/07 12:38:24;;;;;;;50.05;20.80;;;2.80;99.90;;;;;;4974872;28;20460;-74